Time;durP1;ratioP1;P1;durP2;ratioP2;P2;SDS_P1;SDS_P2;PMS_P1;PMS_P2;Temp;Humidity;BMP_temperature;BMP_pressure;BME280_temperature;BME280_humidity;BME280_pressure;Samples;Min_cycle;Max_cycle;Signal;HPM_P1;HPM_P2
2023/08/07 00:01:14;0.00;0.00;0.62;0.00;0.00;0.62;2.60;1.63;;;29.10;30.10;;;;;;2268146;61;20390;-63
2023/08/07 00:03:59;0.00;0.00;0.62;0.00;0.00;0.62;2.27;1.93;;;29.10;30.10;;;;;;2268198;61;20385;-61
2023/08/07 00:06:45;0.00;0.00;0.62;0.00;0.00;0.62;2.50;2.00;;;29.10;30.10;;;;;;2267884;61;20841;-59
2023/08/07 00:09:31;0.00;0.00;0.62;0.00;0.00;0.62;3.47;2.60;;;29.00;30.10;;;;;;2267517;61;20391;-62
2023/08/07 00:12:15;0.00;0.00;0.62;0.00;0.00;0.62;2.50;1.83;;;29.00;30.10;;;;;;2267678;61;20362;-60
2023/08/07 00:15:01;0.00;0.00;0.62;0.00;0.00;0.62;2.47;2.27;;;29.00;30.10;;;;;;2264917;61;20356;-60
2023/08/07 00:17:46;0.00;0.00;0.62;0.00;0.00;0.62;3.70;2.20;;;29.00;30.10;;;;;;2268228;61;20406;-61
2023/08/07 00:20:31;0.00;0.00;0.62;0.00;0.00;0.62;2.20;1.73;;;29.00;30.10;;;;;;2267185;61;20466;-61
2023/08/07 00:23:17;0.00;0.00;0.62;0.00;0.00;0.62;2.30;2.00;;;29.00;30.10;;;;;;2268073;61;20976;-61
2023/08/07 00:26:01;0.00;0.00;0.62;0.00;0.00;0.62;2.10;1.90;;;29.00;30.10;;;;;;2267981;61;20379;-61
2023/08/07 00:28:46;0.00;0.00;0.62;0.00;0.00;0.62;2.53;2.03;;;29.00;30.10;;;;;;2267092;61;20374;-60
2023/08/07 00:31:33;0.00;0.00;0.62;0.00;0.00;0.62;2.50;2.00;;;29.00;30.10;;;;;;2268299;61;20786;-62
2023/08/07 00:34:17;0.00;0.00;0.62;0.00;0.00;0.62;1.90;1.53;;;29.00;30.20;;;;;;2267901;61;20412;-60
2023/08/07 00:37:02;0.00;0.00;0.62;0.00;0.00;0.62;2.10;1.70;;;29.00;30.10;;;;;;2268141;61;20394;-61
2023/08/07 00:39:48;0.00;0.00;0.62;0.00;0.00;0.62;2.17;1.70;;;29.00;30.90;;;;;;2263229;61;20384;-59
2023/08/07 00:42:32;0.00;0.00;0.62;0.00;0.00;0.62;2.67;2.33;;;29.00;30.80;;;;;;2264031;61;20436;-61
2023/08/07 00:45:17;0.00;0.00;0.62;0.00;0.00;0.62;2.50;1.97;;;29.00;30.20;;;;;;2267964;61;20382;-62
2023/08/07 00:48:02;0.00;0.00;0.62;0.00;0.00;0.62;2.27;1.97;;;29.00;30.20;;;;;;2268108;61;20451;-62
2023/08/07 00:50:49;0.00;0.00;0.62;0.00;0.00;0.62;2.40;1.90;;;29.00;30.20;;;;;;2267643;61;20899;-61
2023/08/07 00:53:34;0.00;0.00;0.62;0.00;0.00;0.62;2.37;2.10;;;29.00;30.20;;;;;;2264920;61;20919;-61
2023/08/07 00:56:22;0.00;0.00;0.62;0.00;0.00;0.62;1.90;1.53;;;29.00;30.20;;;;;;2264697;61;20363;-61
2023/08/07 00:59:07;0.00;0.00;0.62;0.00;0.00;0.62;2.67;1.87;;;28.90;30.10;;;;;;2267725;61;20789;-61
2023/08/07 01:01:52;0.00;0.00;0.62;0.00;0.00;0.62;2.30;1.53;;;28.90;30.10;;;;;;2268004;61;20449;-62
2023/08/07 01:04:37;0.00;0.00;0.62;0.00;0.00;0.62;2.20;1.70;;;28.90;30.10;;;;;;2267286;61;20362;-61
2023/08/07 01:07:21;0.00;0.00;0.62;0.00;0.00;0.62;2.83;1.70;;;28.90;30.10;;;;;;2267880;61;20351;-62
2023/08/07 01:10:07;0.00;0.00;0.62;0.00;0.00;0.62;2.07;1.50;;;28.90;30.10;;;;;;2265324;61;20471;-61
2023/08/07 01:13:08;0.00;0.00;0.62;0.00;0.00;0.62;2.30;1.90;;;28.90;30.10;;;;;;2268269;61;20413;-62
2023/08/07 01:15:56;0.00;0.00;0.62;0.00;0.00;0.62;2.70;2.40;;;28.90;30.10;;;;;;2268718;61;20440;-62
2023/08/07 01:18:44;0.00;0.00;0.62;0.00;0.00;0.62;2.10;1.60;;;28.90;30.20;;;;;;2268091;61;20440;-60
2023/08/07 01:21:28;0.00;0.00;0.62;0.00;0.00;0.62;2.37;1.90;;;28.90;30.10;;;;;;2268666;61;20375;-59
2023/08/07 01:24:15;0.00;0.00;0.62;0.00;0.00;0.62;2.47;2.00;;;28.90;30.10;;;;;;2268604;61;20649;-61
2023/08/07 01:27:10;0.00;0.00;0.62;0.00;0.00;0.62;2.30;1.80;;;28.90;30.20;;;;;;2268180;61;20907;-60
2023/08/07 01:30:19;0.00;0.00;0.62;0.00;0.00;0.62;2.30;1.60;;;28.90;30.20;;;;;;2268300;61;20433;-62
2023/08/07 01:33:12;0.00;0.00;0.62;0.00;0.00;0.62;2.27;1.73;;;28.90;30.20;;;;;;2268194;61;20363;-62
2023/08/07 01:36:00;0.00;0.00;0.62;0.00;0.00;0.62;3.03;2.40;;;28.90;30.20;;;;;;2267885;61;20863;-62
2023/08/07 01:38:50;0.00;0.00;0.62;0.00;0.00;0.62;2.23;1.80;;;28.90;30.80;;;;;;2264529;61;20789;-61
2023/08/07 01:41:36;0.00;0.00;0.62;0.00;0.00;0.62;2.33;1.77;;;28.90;30.20;;;;;;2267415;61;20959;-61
2023/08/07 01:44:21;0.00;0.00;0.62;0.00;0.00;0.62;4.33;2.20;;;28.90;30.20;;;;;;2268253;61;20848;-61
2023/08/07 01:47:06;0.00;0.00;0.62;0.00;0.00;0.62;2.20;1.97;;;28.90;30.20;;;;;;2268513;61;20455;-62
2023/08/07 01:49:51;0.00;0.00;0.62;0.00;0.00;0.62;2.70;2.03;;;28.90;30.20;;;;;;2267735;61;20829;-58
2023/08/07 01:52:35;0.00;0.00;0.62;0.00;0.00;0.62;3.13;2.00;;;28.90;30.20;;;;;;2268678;61;20382;-60
2023/08/07 01:55:21;0.00;0.00;0.62;0.00;0.00;0.62;2.20;1.83;;;28.90;30.20;;;;;;2268460;61;20371;-61
2023/08/07 01:58:12;0.00;0.00;0.62;0.00;0.00;0.62;2.07;1.60;;;28.90;30.20;;;;;;2268442;61;20367;-60
2023/08/07 02:00:57;0.00;0.00;0.62;0.00;0.00;0.62;2.13;1.70;;;28.90;30.20;;;;;;2265508;61;20367;-62
2023/08/07 02:03:42;0.00;0.00;0.62;0.00;0.00;0.62;2.70;1.73;;;28.90;30.20;;;;;;2264698;61;20391;-61
2023/08/07 02:06:27;0.00;0.00;0.62;0.00;0.00;0.62;2.77;1.57;;;28.80;30.10;;;;;;2268633;61;20355;-61
2023/08/07 02:09:12;0.00;0.00;0.62;0.00;0.00;0.62;2.00;1.70;;;28.80;30.10;;;;;;2264887;61;20456;-61
2023/08/07 02:11:56;0.00;0.00;0.62;0.00;0.00;0.62;2.60;1.87;;;28.80;30.80;;;;;;2267974;61;20762;-63
2023/08/07 02:14:43;0.00;0.00;0.62;0.00;0.00;0.62;3.17;1.83;;;28.80;30.10;;;;;;2268454;61;20362;-60
2023/08/07 02:17:30;0.00;0.00;0.62;0.00;0.00;0.62;2.27;1.67;;;28.80;30.10;;;;;;2264929;61;20413;-62
2023/08/07 02:20:15;0.00;0.00;0.62;0.00;0.00;0.62;2.43;1.57;;;28.80;30.10;;;;;;2267696;61;20441;-66
2023/08/07 02:23:00;0.00;0.00;0.62;0.00;0.00;0.62;2.30;1.80;;;28.80;30.10;;;;;;2268486;61;20387;-60
2023/08/07 02:25:48;0.00;0.00;0.62;0.00;0.00;0.62;2.13;1.53;;;28.80;30.10;;;;;;2264440;61;20705;-61
2023/08/07 02:28:32;0.00;0.00;0.62;0.00;0.00;0.62;2.57;1.63;;;28.80;30.10;;;;;;2264822;61;20425;-62
2023/08/07 02:31:20;0.00;0.00;0.62;0.00;0.00;0.62;2.13;1.60;;;28.80;30.10;;;;;;2265090;61;20773;-60
2023/08/07 02:34:06;0.00;0.00;0.62;0.00;0.00;0.62;1.93;1.47;;;28.80;30.10;;;;;;2264528;61;20457;-60
2023/08/07 02:36:51;0.00;0.00;0.62;0.00;0.00;0.62;1.90;1.60;;;28.80;30.80;;;;;;2265233;61;20385;-62
2023/08/07 02:39:36;0.00;0.00;0.62;0.00;0.00;0.62;2.27;1.60;;;28.80;30.10;;;;;;2267957;61;20387;-61
2023/08/07 02:42:20;0.00;0.00;0.62;0.00;0.00;0.62;1.97;1.53;;;28.80;30.10;;;;;;2268077;61;20814;-61
2023/08/07 02:45:07;0.00;0.00;0.62;0.00;0.00;0.62;1.73;1.40;;;28.70;30.00;;;;;;2265196;61;20363;-61
2023/08/07 02:47:53;0.00;0.00;0.62;0.00;0.00;0.62;1.80;1.30;;;28.80;30.10;;;;;;2264573;61;20884;-61
2023/08/07 02:50:38;0.00;0.00;0.62;0.00;0.00;0.62;2.27;1.47;;;28.70;30.00;;;;;;2268167;61;20366;-61
2023/08/07 02:53:22;0.00;0.00;0.62;0.00;0.00;0.62;2.10;1.60;;;28.80;30.80;;;;;;2268367;61;20363;-60
2023/08/07 02:56:07;0.00;0.00;0.62;0.00;0.00;0.62;1.70;1.43;;;28.80;30.10;;;;;;2264647;61;20458;-59
2023/08/07 02:58:52;0.00;0.00;0.62;0.00;0.00;0.62;2.27;1.60;;;28.80;30.80;;;;;;2264747;61;20380;-60
2023/08/07 03:01:36;0.00;0.00;0.62;0.00;0.00;0.62;2.67;1.60;;;28.80;30.10;;;;;;2265107;61;20471;-61
2023/08/07 03:04:23;0.00;0.00;0.62;0.00;0.00;0.62;1.50;1.17;;;28.80;30.10;;;;;;2264837;61;20493;-59
2023/08/07 03:07:08;0.00;0.00;0.62;0.00;0.00;0.62;2.00;1.40;;;28.70;30.00;;;;;;2265114;61;20417;-61
2023/08/07 03:09:52;0.00;0.00;0.62;0.00;0.00;0.62;1.57;1.30;;;28.70;30.00;;;;;;2264165;61;20405;-61
2023/08/07 03:12:37;0.00;0.00;0.62;0.00;0.00;0.62;1.97;1.43;;;28.70;30.10;;;;;;2268405;61;20933;-60
2023/08/07 03:15:22;0.00;0.00;0.62;0.00;0.00;0.62;2.00;1.20;;;28.70;30.00;;;;;;2265167;61;20358;-63
2023/08/07 03:18:07;0.00;0.00;0.62;0.00;0.00;0.62;2.50;1.47;;;28.70;30.00;;;;;;2264552;61;20948;-61
2023/08/07 03:20:54;0.00;0.00;0.62;0.00;0.00;0.62;3.17;1.50;;;28.70;30.00;;;;;;2268118;61;20358;-58
2023/08/07 03:23:39;0.00;0.00;0.62;0.00;0.00;0.62;2.10;1.30;;;28.70;30.00;;;;;;2265247;61;20355;-61
2023/08/07 03:26:25;0.00;0.00;0.62;0.00;0.00;0.62;1.67;1.30;;;28.70;30.00;;;;;;2264517;61;20487;-60
2023/08/07 03:29:09;0.00;0.00;0.62;0.00;0.00;0.62;1.83;1.20;;;28.70;30.00;;;;;;2268026;61;20424;-62
2023/08/07 03:31:56;0.00;0.00;0.62;0.00;0.00;0.62;1.87;1.33;;;28.70;30.00;;;;;;2264513;61;20411;-59
2023/08/07 03:34:41;0.00;0.00;0.62;0.00;0.00;0.62;1.90;1.50;;;28.70;30.00;;;;;;2265025;61;20466;-60
2023/08/07 03:37:28;0.00;0.00;0.62;0.00;0.00;0.62;2.33;1.20;;;28.70;30.00;;;;;;2265320;61;20395;-63
2023/08/07 03:40:13;0.00;0.00;0.62;0.00;0.00;0.62;1.83;1.40;;;28.70;30.00;;;;;;2267648;61;20422;-67
2023/08/07 03:42:58;0.00;0.00;0.62;0.00;0.00;0.62;1.83;1.20;;;28.70;30.00;;;;;;2264838;61;21094;-60
2023/08/07 03:45:43;0.00;0.00;0.62;0.00;0.00;0.62;1.70;1.20;;;28.70;30.00;;;;;;2265047;61;20359;-61
2023/08/07 03:48:28;0.00;0.00;0.62;0.00;0.00;0.62;3.10;1.23;;;28.70;30.00;;;;;;2266964;61;20467;-60
2023/08/07 03:51:16;0.00;0.00;0.62;0.00;0.00;0.62;2.80;1.67;;;28.70;30.00;;;;;;2265010;61;20355;-61
2023/08/07 03:54:07;0.00;0.00;0.62;0.00;0.00;0.62;1.90;1.27;;;28.70;30.00;;;;;;2264754;61;20366;-61
2023/08/07 03:56:51;0.00;0.00;0.62;0.00;0.00;0.62;2.10;1.67;;;28.60;30.00;;;;;;2268214;61;20410;-60
2023/08/07 03:59:38;0.00;0.00;0.62;0.00;0.00;0.62;1.43;1.00;;;28.60;30.00;;;;;;2264435;61;20457;-61
2023/08/07 04:02:24;0.00;0.00;0.62;0.00;0.00;0.62;2.10;1.40;;;28.60;30.70;;;;;;2264500;61;20529;-61
2023/08/07 04:05:08;0.00;0.00;0.62;0.00;0.00;0.62;1.80;1.10;;;28.60;30.00;;;;;;2264877;61;20934;-60
2023/08/07 04:07:53;0.00;0.00;0.62;0.00;0.00;0.62;1.63;1.33;;;28.60;30.00;;;;;;2264704;61;20382;-61
2023/08/07 04:10:39;0.00;0.00;0.62;0.00;0.00;0.62;2.00;1.50;;;28.60;30.00;;;;;;2267308;61;20410;-61
2023/08/07 04:13:23;0.00;0.00;0.62;0.00;0.00;0.62;1.83;1.40;;;28.60;30.00;;;;;;2265150;61;20363;-61
2023/08/07 04:16:08;0.00;0.00;0.62;0.00;0.00;0.62;2.07;1.53;;;28.60;30.00;;;;;;2267941;61;20763;-61
2023/08/07 04:18:53;0.00;0.00;0.62;0.00;0.00;0.62;2.90;1.23;;;28.60;30.00;;;;;;2264564;61;20919;-62
2023/08/07 04:21:38;0.00;0.00;0.62;0.00;0.00;0.62;1.87;1.13;;;28.60;30.00;;;;;;2268153;61;20383;-61
2023/08/07 04:24:23;0.00;0.00;0.62;0.00;0.00;0.62;2.30;1.60;;;28.60;30.00;;;;;;2267430;61;20421;-61
2023/08/07 04:27:10;0.00;0.00;0.62;0.00;0.00;0.62;2.10;1.40;;;28.60;30.00;;;;;;2264802;61;20429;-61
2023/08/07 04:29:55;0.00;0.00;0.62;0.00;0.00;0.62;2.10;1.33;;;28.60;30.00;;;;;;2267789;61;20387;-60
2023/08/07 04:32:40;0.00;0.00;0.62;0.00;0.00;0.62;2.27;1.30;;;28.60;30.00;;;;;;2267609;61;20924;-61
2023/08/07 04:35:25;0.00;0.00;0.62;0.00;0.00;0.62;2.10;1.63;;;28.60;30.00;;;;;;2268171;61;20366;-61
2023/08/07 04:38:10;0.00;0.00;0.62;0.00;0.00;0.62;1.87;1.53;;;28.60;30.00;;;;;;2267788;61;20401;-60
2023/08/07 04:40:54;0.00;0.00;0.62;0.00;0.00;0.62;2.30;1.90;;;28.60;30.00;;;;;;2267850;61;20803;-61
2023/08/07 04:43:42;0.00;0.00;0.62;0.00;0.00;0.62;1.80;1.37;;;28.60;30.70;;;;;;2268130;61;20459;-62
2023/08/07 04:46:27;0.00;0.00;0.62;0.00;0.00;0.62;1.93;1.73;;;28.60;30.00;;;;;;2268171;61;20412;-59
2023/08/07 04:49:12;0.00;0.00;0.62;0.00;0.00;0.62;2.20;1.77;;;28.60;30.00;;;;;;2268212;61;20911;-62
2023/08/07 04:51:57;0.00;0.00;0.62;0.00;0.00;0.62;2.40;1.50;;;28.60;30.00;;;;;;2268766;61;20359;-61
2023/08/07 04:54:41;0.00;0.00;0.62;0.00;0.00;0.62;3.30;1.93;;;28.60;30.00;;;;;;2268114;61;20363;-61
2023/08/07 04:57:26;0.00;0.00;0.62;0.00;0.00;0.62;3.00;1.80;;;28.60;30.70;;;;;;2268799;61;20831;-61
2023/08/07 05:00:14;0.00;0.00;0.62;0.00;0.00;0.62;2.50;1.50;;;28.60;30.00;;;;;;2267779;61;20597;-59
2023/08/07 05:02:59;0.00;0.00;0.62;0.00;0.00;0.62;2.50;2.30;;;28.50;30.00;;;;;;2267863;61;20386;-60
2023/08/07 05:05:44;0.00;0.00;0.62;0.00;0.00;0.62;2.10;1.50;;;28.50;30.00;;;;;;2268234;61;20391;-60
2023/08/07 05:08:29;0.00;0.00;0.62;0.00;0.00;0.62;2.10;1.70;;;28.50;30.00;;;;;;2267235;61;20398;-62
2023/08/07 05:11:15;0.00;0.00;0.62;0.00;0.00;0.62;2.60;1.77;;;28.50;30.00;;;;;;2268670;61;20402;-62
2023/08/07 05:13:59;0.00;0.00;0.62;0.00;0.00;0.62;2.47;1.70;;;28.50;30.00;;;;;;2268556;61;20371;-61
2023/08/07 05:16:47;0.00;0.00;0.62;0.00;0.00;0.62;2.00;1.53;;;28.50;30.00;;;;;;2264866;61;20883;-59
2023/08/07 05:19:32;0.00;0.00;0.62;0.00;0.00;0.62;2.03;1.60;;;28.50;30.00;;;;;;2265175;61;20817;-59
2023/08/07 05:22:17;0.00;0.00;0.62;0.00;0.00;0.62;2.53;1.60;;;28.50;30.00;;;;;;2268688;61;20445;-61
2023/08/07 05:25:01;0.00;0.00;0.62;0.00;0.00;0.62;2.53;1.90;;;28.50;30.00;;;;;;2268221;61;20371;-58
2023/08/07 05:27:47;0.00;0.00;0.62;0.00;0.00;0.62;3.57;1.80;;;28.50;30.00;;;;;;2268667;61;20429;-59
2023/08/07 05:30:32;0.00;0.00;0.62;0.00;0.00;0.62;2.73;1.50;;;28.50;30.00;;;;;;2267788;61;20903;-60
2023/08/07 05:33:18;0.00;0.00;0.62;0.00;0.00;0.62;2.90;1.97;;;28.50;30.00;;;;;;2268564;61;20417;-61
2023/08/07 05:36:05;0.00;0.00;0.62;0.00;0.00;0.62;2.30;1.70;;;28.50;30.00;;;;;;2268732;61;20866;-60
2023/08/07 05:38:50;0.00;0.00;0.62;0.00;0.00;0.62;2.17;1.57;;;28.50;30.00;;;;;;2267611;61;20837;-61
2023/08/07 05:41:35;0.00;0.00;0.62;0.00;0.00;0.62;2.00;1.33;;;28.50;30.00;;;;;;2268478;61;20359;-60
2023/08/07 05:44:20;0.00;0.00;0.62;0.00;0.00;0.62;2.77;1.90;;;28.50;30.00;;;;;;2268643;61;20407;-61
2023/08/07 05:47:06;0.00;0.00;0.62;0.00;0.00;0.62;2.20;1.60;;;28.50;30.00;;;;;;2268379;61;20454;-60
2023/08/07 05:49:52;0.00;0.00;0.62;0.00;0.00;0.62;2.40;1.80;;;28.50;30.00;;;;;;2267934;61;20831;-61
2023/08/07 05:52:37;0.00;0.00;0.62;0.00;0.00;0.62;3.20;2.03;;;28.50;30.00;;;;;;2268162;61;20390;-58
2023/08/07 05:55:22;0.00;0.00;0.62;0.00;0.00;0.62;2.17;1.37;;;28.50;30.00;;;;;;2268234;61;20402;-62
2023/08/07 05:58:06;0.00;0.00;0.62;0.00;0.00;0.62;3.17;1.90;;;28.50;30.00;;;;;;2268611;61;20363;-61
2023/08/07 06:00:51;0.00;0.00;0.62;0.00;0.00;0.62;2.57;1.87;;;28.50;30.00;;;;;;2268079;61;20394;-61
2023/08/07 06:03:36;0.00;0.00;0.62;0.00;0.00;0.62;3.17;1.93;;;28.40;30.00;;;;;;2268737;61;21011;-60
2023/08/07 06:06:22;0.00;0.00;0.62;0.00;0.00;0.62;2.30;1.60;;;28.40;30.00;;;;;;2268722;61;20911;-64
2023/08/07 06:09:07;0.00;0.00;0.62;0.00;0.00;0.62;3.03;2.20;;;28.40;30.00;;;;;;2267613;61;20387;-62
2023/08/07 06:11:51;0.00;0.00;0.62;0.00;0.00;0.62;2.50;1.60;;;28.40;30.00;;;;;;2268568;61;20419;-60
2023/08/07 06:14:37;0.00;0.00;0.62;0.00;0.00;0.62;2.17;1.80;;;28.40;30.00;;;;;;2268277;61;20383;-61
2023/08/07 06:17:22;0.00;0.00;0.62;0.00;0.00;0.62;2.00;1.73;;;28.40;30.00;;;;;;2268487;61;20455;-60
2023/08/07 06:20:10;0.00;0.00;0.62;0.00;0.00;0.62;2.70;2.00;;;28.40;30.00;;;;;;2268239;61;20463;-60
2023/08/07 06:22:56;0.00;0.00;0.62;0.00;0.00;0.62;2.00;1.40;;;28.40;30.00;;;;;;2267902;61;20470;-65
2023/08/07 06:25:40;0.00;0.00;0.62;0.00;0.00;0.62;2.37;1.90;;;28.40;30.00;;;;;;2268496;61;20908;-60
2023/08/07 06:28:25;0.00;0.00;0.62;0.00;0.00;0.62;2.60;2.33;;;28.40;30.00;;;;;;2267959;61;20362;-60
2023/08/07 06:31:11;0.00;0.00;0.62;0.00;0.00;0.62;2.77;1.93;;;28.40;30.00;;;;;;2268160;61;20829;-61
2023/08/07 06:33:56;0.00;0.00;0.62;0.00;0.00;0.62;2.80;2.10;;;28.40;30.00;;;;;;2268594;61;20447;-58
2023/08/07 06:36:41;0.00;0.00;0.62;0.00;0.00;0.62;2.33;1.90;;;28.40;30.00;;;;;;2268398;61;20387;-65
2023/08/07 06:39:27;0.00;0.00;0.62;0.00;0.00;0.62;2.73;2.23;;;28.40;30.00;;;;;;2267846;61;20386;-60
2023/08/07 06:42:12;0.00;0.00;0.62;0.00;0.00;0.62;4.27;2.60;;;28.40;30.10;;;;;;2268454;61;20444;-61
2023/08/07 06:45:00;0.00;0.00;0.62;0.00;0.00;0.62;2.60;2.37;;;28.40;30.00;;;;;;2264635;61;20398;-60
2023/08/07 06:47:45;0.00;0.00;0.62;0.00;0.00;0.62;3.50;2.80;;;28.40;30.00;;;;;;2268392;61;20363;-60
2023/08/07 06:50:29;0.00;0.00;0.62;0.00;0.00;0.62;3.60;3.20;;;28.40;30.00;;;;;;2268027;61;20472;-61
2023/08/07 06:53:14;0.00;0.00;0.62;0.00;0.00;0.62;3.53;2.87;;;28.40;30.00;;;;;;2267933;61;20366;-61
2023/08/07 06:56:00;0.00;0.00;0.62;0.00;0.00;0.62;4.03;3.00;;;28.40;30.10;;;;;;2268200;61;20922;-61
2023/08/07 06:58:45;0.00;0.00;0.62;0.00;0.00;0.62;3.80;3.37;;;28.40;30.00;;;;;;2267805;61;20484;-61
2023/08/07 07:01:31;0.00;0.00;0.62;0.00;0.00;0.62;4.10;3.37;;;28.40;30.00;;;;;;2268115;61;20363;-61
2023/08/07 07:04:15;0.00;0.00;0.62;0.00;0.00;0.62;4.30;3.50;;;28.40;30.10;;;;;;2268462;61;20457;-61
2023/08/07 07:07:00;0.00;0.00;0.62;0.00;0.00;0.62;4.00;3.37;;;28.40;30.00;;;;;;2267683;61;20405;-61
2023/08/07 07:09:45;0.00;0.00;0.62;0.00;0.00;0.62;4.43;3.00;;;28.40;30.00;;;;;;2267824;61;20390;-61
2023/08/07 07:12:31;0.00;0.00;0.62;0.00;0.00;0.62;4.87;4.00;;;28.40;30.10;;;;;;2268292;61;20359;-60
2023/08/07 07:15:16;0.00;0.00;0.62;0.00;0.00;0.62;4.00;3.50;;;28.40;30.10;;;;;;2267948;61;20405;-60
2023/08/07 07:18:01;0.00;0.00;0.62;0.00;0.00;0.62;4.57;4.07;;;28.40;30.10;;;;;;2268259;61;20407;-65
2023/08/07 07:20:45;0.00;0.00;0.62;0.00;0.00;0.62;5.30;4.23;;;28.40;30.10;;;;;;2268373;61;20379;-59
2023/08/07 07:23:30;0.00;0.00;0.62;0.00;0.00;0.62;4.57;3.93;;;28.40;30.10;;;;;;2267880;61;20383;-61
2023/08/07 07:26:14;0.00;0.00;0.62;0.00;0.00;0.62;5.10;4.10;;;28.40;30.10;;;;;;2268256;61;20375;-64
2023/08/07 07:29:00;0.00;0.00;0.62;0.00;0.00;0.62;4.80;3.90;;;28.40;30.10;;;;;;2267450;61;20537;-60
2023/08/07 07:31:45;0.00;0.00;0.62;0.00;0.00;0.62;5.17;4.07;;;28.40;30.10;;;;;;2268251;61;20768;-61
2023/08/07 07:34:30;0.00;0.00;0.62;0.00;0.00;0.62;6.23;4.50;;;28.40;30.10;;;;;;2266934;61;20414;-61
2023/08/07 07:37:16;0.00;0.00;0.62;0.00;0.00;0.62;4.70;3.90;;;28.40;30.10;;;;;;2267873;61;20914;-61
2023/08/07 07:40:01;0.00;0.00;0.62;0.00;0.00;0.62;5.37;4.37;;;28.40;30.10;;;;;;2267791;61;20910;-60
2023/08/07 07:42:45;0.00;0.00;0.62;0.00;0.00;0.62;5.23;4.23;;;28.40;30.10;;;;;;2268434;61;20387;-60
2023/08/07 07:45:35;0.00;0.00;0.62;0.00;0.00;0.62;5.40;3.60;;;28.40;30.20;;;;;;2264614;61;20421;-61
2023/08/07 07:48:20;0.00;0.00;0.62;0.00;0.00;0.62;5.23;4.50;;;28.40;30.20;;;;;;2267802;61;20424;-61
2023/08/07 07:51:05;0.00;0.00;0.62;0.00;0.00;0.62;4.53;3.77;;;28.40;30.10;;;;;;2267472;61;20413;-61
2023/08/07 07:53:49;0.00;0.00;0.62;0.00;0.00;0.62;5.40;4.30;;;28.40;30.10;;;;;;2268289;61;20358;-61
2023/08/07 07:56:34;0.00;0.00;0.62;0.00;0.00;0.62;4.47;3.43;;;28.40;30.10;;;;;;2268381;61;20891;-60
2023/08/07 07:59:19;0.00;0.00;0.62;0.00;0.00;0.62;4.93;4.43;;;28.40;30.20;;;;;;2267438;61;20406;-60
2023/08/07 08:02:05;0.00;0.00;0.62;0.00;0.00;0.62;5.03;4.13;;;28.40;30.20;;;;;;2268338;61;20830;-60
2023/08/07 08:04:51;0.00;0.00;0.62;0.00;0.00;0.62;4.80;3.83;;;28.40;30.20;;;;;;2268195;61;20420;-60
2023/08/07 08:07:38;0.00;0.00;0.62;0.00;0.00;0.62;4.13;3.40;;;28.30;30.10;;;;;;2266617;61;20363;-60
2023/08/07 08:10:25;0.00;0.00;0.62;0.00;0.00;0.62;4.50;4.10;;;28.40;30.20;;;;;;2267776;61;20395;-61
2023/08/07 08:13:10;0.00;0.00;0.62;0.00;0.00;0.62;4.10;3.70;;;28.30;30.10;;;;;;2267923;61;20395;-60
2023/08/07 08:15:55;0.00;0.00;0.62;0.00;0.00;0.62;4.10;3.40;;;28.30;30.10;;;;;;2268115;61;20825;-61
2023/08/07 08:18:41;0.00;0.00;0.62;0.00;0.00;0.62;3.70;3.17;;;28.30;30.20;;;;;;2267423;61;20420;-61
2023/08/07 08:21:26;0.00;0.00;0.62;0.00;0.00;0.62;4.27;3.33;;;28.30;30.20;;;;;;2267787;61;20367;-61
2023/08/07 08:24:11;0.00;0.00;0.62;0.00;0.00;0.62;4.00;3.60;;;28.30;30.20;;;;;;2267558;61;20359;-62
2023/08/07 08:26:56;0.00;0.00;0.62;0.00;0.00;0.62;4.60;3.47;;;28.30;30.20;;;;;;2267660;61;20379;-62
2023/08/07 08:29:41;0.00;0.00;0.62;0.00;0.00;0.62;4.30;3.67;;;28.30;30.20;;;;;;2266568;61;20410;-60
2023/08/07 08:32:26;0.00;0.00;0.62;0.00;0.00;0.62;3.07;2.77;;;28.30;30.20;;;;;;2267621;61;20371;-61
2023/08/07 08:35:12;0.00;0.00;0.62;0.00;0.00;0.62;4.80;3.17;;;28.30;30.20;;;;;;2267446;61;20763;-61
2023/08/07 08:37:57;0.00;0.00;0.62;0.00;0.00;0.62;3.47;3.17;;;28.30;30.30;;;;;;2267705;61;20371;-56
2023/08/07 08:40:43;0.00;0.00;0.62;0.00;0.00;0.62;4.13;3.40;;;28.30;30.20;;;;;;2267905;61;20405;-61
2023/08/07 08:43:32;0.00;0.00;0.62;0.00;0.00;0.62;3.93;3.10;;;28.30;30.20;;;;;;2267452;61;20708;-62
2023/08/07 08:46:20;0.00;0.00;0.62;0.00;0.00;0.62;3.90;3.40;;;28.30;30.30;;;;;;2268021;61;20413;-62
2023/08/07 08:49:07;0.00;0.00;0.62;0.00;0.00;0.62;3.30;2.90;;;28.30;30.30;;;;;;2267589;61;20898;-60
2023/08/07 08:51:53;0.00;0.00;0.62;0.00;0.00;0.62;4.30;2.87;;;28.30;30.30;;;;;;2267392;61;20398;-59
2023/08/07 08:54:40;0.00;0.00;0.62;0.00;0.00;0.62;3.83;3.00;;;28.30;30.30;;;;;;2268234;61;20367;-60
2023/08/07 08:57:28;0.00;0.00;0.62;0.00;0.00;0.62;3.50;2.80;;;28.30;30.30;;;;;;2267748;61;20355;-59
2023/08/07 09:00:20;0.00;0.00;0.62;0.00;0.00;0.62;3.70;2.90;;;28.30;30.30;;;;;;2267679;61;20419;-62
2023/08/07 09:03:05;0.00;0.00;0.62;0.00;0.00;0.62;2.87;2.57;;;28.30;30.30;;;;;;2268058;61;20395;-61
2023/08/07 09:05:52;0.00;0.00;0.62;0.00;0.00;0.62;2.97;2.60;;;28.30;30.30;;;;;;2267557;61;20421;-59
2023/08/07 09:08:42;0.00;0.00;0.62;0.00;0.00;0.62;3.83;2.70;;;28.30;30.30;;;;;;2267706;61;20383;-61
2023/08/07 09:11:29;0.00;0.00;0.62;0.00;0.00;0.62;4.00;2.47;;;28.30;30.30;;;;;;2268078;61;20409;-59
2023/08/07 09:14:20;0.00;0.00;0.62;0.00;0.00;0.62;3.00;2.53;;;28.30;30.30;;;;;;2267617;61;20903;-64
2023/08/07 09:17:05;0.00;0.00;0.62;0.00;0.00;0.62;3.70;2.77;;;28.30;30.30;;;;;;2268136;61;20889;-60
2023/08/07 09:19:51;0.00;0.00;0.62;0.00;0.00;0.62;2.50;2.20;;;28.30;30.30;;;;;;2266943;61;20379;-61
2023/08/07 09:22:36;0.00;0.00;0.62;0.00;0.00;0.62;3.37;2.63;;;28.30;30.30;;;;;;2268057;61;20394;-61
2023/08/07 09:25:33;0.00;0.00;0.62;0.00;0.00;0.62;3.20;2.60;;;28.30;30.30;;;;;;2267822;61;20374;-63
2023/08/07 09:28:17;0.00;0.00;0.62;0.00;0.00;0.62;3.30;2.70;;;28.30;30.30;;;;;;2266954;61;20363;-60
2023/08/07 09:31:05;0.00;0.00;0.62;0.00;0.00;0.62;3.33;2.77;;;28.30;30.30;;;;;;2268656;61;20459;-62
2023/08/07 09:33:50;0.00;0.00;0.62;0.00;0.00;0.62;3.20;2.90;;;28.30;30.30;;;;;;2268661;61;20363;-59
2023/08/07 09:36:35;0.00;0.00;0.62;0.00;0.00;0.62;3.50;2.87;;;28.30;30.30;;;;;;2268354;61;20423;-59
2023/08/07 09:39:25;0.00;0.00;0.62;0.00;0.00;0.62;3.60;2.77;;;28.30;30.40;;;;;;2268341;61;20513;-58
2023/08/07 09:42:15;0.00;0.00;0.62;0.00;0.00;0.62;4.50;3.37;;;28.30;30.40;;;;;;2268030;61;20387;-60
2023/08/07 09:45:01;0.00;0.00;0.62;0.00;0.00;0.62;3.63;3.00;;;28.30;30.40;;;;;;2268719;61;20363;-61
2023/08/07 09:47:45;0.00;0.00;0.62;0.00;0.00;0.62;4.63;3.30;;;28.30;30.40;;;;;;2268525;61;20404;-61
2023/08/07 09:50:31;0.00;0.00;0.62;0.00;0.00;0.62;3.10;2.70;;;28.40;30.50;;;;;;2267775;61;20834;-61
2023/08/07 09:53:16;0.00;0.00;0.62;0.00;0.00;0.62;3.87;2.80;;;28.30;30.40;;;;;;2268884;61;20462;-61
2023/08/07 09:56:01;0.00;0.00;0.62;0.00;0.00;0.62;3.73;3.33;;;28.30;30.40;;;;;;2268484;61;20892;-60
2023/08/07 09:58:53;0.00;0.00;0.62;0.00;0.00;0.62;3.33;2.80;;;28.40;30.50;;;;;;2264543;61;20604;-61
2023/08/07 10:01:39;0.00;0.00;0.62;0.00;0.00;0.62;3.47;3.13;;;28.30;30.40;;;;;;2268555;61;20363;-60
2023/08/07 10:04:24;0.00;0.00;0.62;0.00;0.00;0.62;2.87;2.37;;;28.40;30.50;;;;;;2264968;61;20359;-61
2023/08/07 10:07:12;0.00;0.00;0.62;0.00;0.00;0.62;4.60;3.37;;;28.40;30.50;;;;;;2268589;61;20371;-61
2023/08/07 10:09:59;0.00;0.00;0.62;0.00;0.00;0.62;4.17;3.20;;;28.40;30.50;;;;;;2268052;61;20468;-59
2023/08/07 10:12:45;0.00;0.00;0.62;0.00;0.00;0.62;4.00;3.40;;;28.40;30.50;;;;;;2267967;61;20362;-61
2023/08/07 10:15:34;0.00;0.00;0.62;0.00;0.00;0.62;2.70;2.40;;;28.40;30.50;;;;;;2268555;61;20389;-58
2023/08/07 10:18:21;0.00;0.00;0.62;0.00;0.00;0.62;2.60;2.40;;;28.40;30.60;;;;;;2268137;61;21006;-63
2023/08/07 10:21:07;0.00;0.00;0.62;0.00;0.00;0.62;2.93;2.57;;;28.40;30.60;;;;;;2268220;61;20399;-60
2023/08/07 10:23:53;0.00;0.00;0.62;0.00;0.00;0.62;2.70;2.50;;;28.40;30.60;;;;;;2268171;61;20576;-61
2023/08/07 10:26:44;0.00;0.00;0.62;0.00;0.00;0.62;4.00;2.80;;;28.40;30.60;;;;;;2268000;61;20787;-65
2023/08/07 10:29:31;0.00;0.00;0.62;0.00;0.00;0.62;3.33;2.30;;;28.40;30.60;;;;;;2268107;61;20589;-60
2023/08/07 10:32:20;0.00;0.00;0.62;0.00;0.00;0.62;2.60;2.40;;;28.40;30.60;;;;;;2268656;61;20455;-60
2023/08/07 10:35:06;0.00;0.00;0.62;0.00;0.00;0.62;2.67;2.13;;;28.40;30.60;;;;;;2268023;61;20559;-61
2023/08/07 10:37:53;0.00;0.00;0.62;0.00;0.00;0.62;3.30;2.10;;;28.40;30.60;;;;;;2268453;61;20405;-62
2023/08/07 10:41:00;0.00;0.00;0.62;0.00;0.00;0.62;3.20;2.20;;;28.40;30.60;;;;;;2268107;61;20477;-60
2023/08/07 10:43:47;0.00;0.00;0.62;0.00;0.00;0.62;2.70;2.17;;;28.40;30.60;;;;;;2268459;61;20382;-60
2023/08/07 10:46:48;0.00;0.00;0.62;0.00;0.00;0.62;3.23;2.27;;;28.40;30.60;;;;;;2268445;61;20879;-61
2023/08/07 10:49:36;0.00;0.00;0.62;0.00;0.00;0.62;2.70;2.10;;;28.40;30.60;;;;;;2267233;61;20425;-61
2023/08/07 10:52:22;0.00;0.00;0.62;0.00;0.00;0.62;4.67;2.33;;;28.40;30.60;;;;;;2268466;61;20425;-58
2023/08/07 10:55:14;0.00;0.00;0.62;0.00;0.00;0.62;3.37;2.07;;;28.40;30.60;;;;;;2268415;61;20375;-60